Aérodrome :
LOGIN :

S'inscrire | Disclaimer

   EN    FR    IT 

 










Légende :    VFR   VFR Marginal   IFR   IFR Intensif   IFR Très Intensif
Visi : 
Plafond : 
>= 8 km
>= 3000ft
5 à 8 km
1000 à 3000 ft
1500m à 5 km
500 à 1000 ft
800 à 1500m
200 à 500 ft
< 800m
< 200 ft
Symboles :   Orages  Brouillard  Fortes neiges  Fortes précipitations  Vent > 20 kt
SIGMETs :   Divers  Orages  Givrage  Turbulence  Onde Orograph.  Cendres Volcan.






- Altitude de l'aérodrome : 353 ft
- Code IATA : LIN


LIML - Milano Linate

DERNIER METAR :
  • 131420Z 34008KT 290V360 CAVOK 15/M05 Q0999 NOSIG

METARs EXPIRÉS :
  • 131350Z 34008KT 300V010 CAVOK 15/M04 Q0999 NOSIG
  • 131320Z 33008KT CAVOK 15/M04 Q0999 NOSIG
  • 131250Z 27007KT 240V310 CAVOK 14/02 Q0999 NOSIG
  • 131220Z 27009KT 230V290 CAVOK 14/01 Q0998 NOSIG
  • 131150Z 24005KT 200V290 CAVOK 13/04 Q0998 NOSIG

TAF TAF LIML
Valide du 13 à 12h jusqu'au 14 à 12h UTC


131100Z 1312/1412 VRB05KT 8000 SCT090



MET'MAP, la Météo Aéronautique d'un coup d'oeil ! - Copyright ORBIFLY Décembre 2007 - Disclaimer

ORBIFLY MET'MAP TEAM :

Programmation & Développement : Alexandra Zaïnal
Conception & Développement : Baudouin d'Aumeries
Co-Programmation & Développement : Marc-Olivier Méhu
Soutien technique & logistique : Manuel Goepfert

Contact : metmap@orbifly.com




SOURCES & CREDITS :

   NOAA